Time;durP1;ratioP1;P1;durP2;ratioP2;P2;SDS_P1;SDS_P2;PMS_P1;PMS_P2;Temp;Humidity;BMP_temperature;BMP_pressure;BME280_temperature;BME280_humidity;BME280_pressure;Samples;Min_cycle;Max_cycle;Signal;HPM_P1;HPM_P2
2022/03/01 00:00:08;;;;;;;;;;;;;;;;;;5074533;28;884;-70
2022/03/01 00:02:33;;;;;;;;;;;;;;;;;;5082371;28;1707;-70
2022/03/01 00:04:58;;;;;;;;;;;;;;;;;;5085874;28;1964;-70
2022/03/01 00:07:23;;;;;;;;;;;;;;;;;;5053831;28;1327;-71
2022/03/01 00:09:49;;;;;;;;;;;;;;;;;;5077039;28;1745;-71
2022/03/01 00:12:14;;;;;;;;;;;;;;;;;;5076435;28;1651;-71
2022/03/01 00:14:39;;;;;;;;;;;;;;;;;;5073458;28;1839;-71
2022/03/01 00:17:05;;;;;;;;;;;;;;;;;;5057023;28;1706;-72
2022/03/01 00:19:30;;;;;;;;;;;;;;;;;;5083617;28;1670;-71
2022/03/01 00:21:56;;;;;;;;;;;;;;;;;;5079987;28;1405;-71
2022/03/01 00:24:21;;;;;;;;;;;;;;;;;;5090550;28;1468;-71
2022/03/01 00:26:46;;;;;;;;;;;;;;;;;;5104662;28;1897;-71
2022/03/01 00:29:12;;;;;;;;;;;;;;;;;;5073604;28;1741;-71
2022/03/01 00:31:37;;;;;;;;;;;;;;;;;;5091809;28;797;-71
2022/03/01 00:34:02;;;;;;;;;;;;;;;;;;5074896;28;1805;-71
2022/03/01 00:36:27;;;;;;;;;;;;;;;;;;5080137;28;1821;-71
2022/03/01 00:38:53;;;;;;;;;;;;;;;;;;5075749;28;1758;-71
2022/03/01 00:41:18;;;;;;;;;;;;;;;;;;5067088;28;1808;-70
2022/03/01 00:43:43;;;;;;;;;;;;;;;;;;5080321;28;1742;-71
2022/03/01 00:46:09;;;;;;;;;;;;;;;;;;5075709;28;1898;-71
2022/03/01 00:48:34;;;;;;;;;;;;;;;;;;5073397;28;1550;-71
2022/03/01 00:51:03;;;;;;;;;;;;;;;;;;5054766;28;1296;-72
2022/03/01 00:53:29;;;;;;;;;;;;;;;;;;5082399;28;1770;-72
2022/03/01 00:55:54;;;;;;;;;;;;;;;;;;5078918;28;1702;-71
2022/03/01 00:58:19;;;;;;;;;;;;;;;;;;5079736;28;1836;-71
2022/03/01 01:00:44;;;;;;;;;;;;;;;;;;5073709;28;1266;-71
2022/03/01 01:03:10;;;;;;;;;;;;;;;;;;5075949;28;1722;-71
2022/03/01 01:05:35;;;;;;;;;;;;;;;;;;5072268;28;1953;-71
2022/03/01 01:08:01;;;;;;;;;;;;;;;;;;5073534;28;1733;-71
2022/03/01 01:10:27;;;;;;;;;;;;;;;;;;5072060;28;1153;-71
2022/03/01 01:12:52;;;;;;;;;;;;;;;;;;5078533;28;1730;-71
2022/03/01 01:15:18;;;;;;;;;;;;;;;;;;5093769;28;1056;-71
2022/03/01 01:17:44;;;;;;;;;;;;;;;;;;5088805;28;1639;-71
2022/03/01 01:20:09;;;;;;;;;;;;;;;;;;5070788;28;920;-71
2022/03/01 01:22:41;;;;;;;;;;;;;;;;;;5070703;28;1583;-71
2022/03/01 01:25:07;;;;;;;;;;;;;;;;;;5052457;28;1897;-71
2022/03/01 01:27:33;;;;;;;;;;;;;;;;;;5085354;28;1679;-71
2022/03/01 01:29:59;;;;;;;;;;;;;;;;;;5072965;28;1785;-71
2022/03/01 01:32:24;;;;;;;;;;;;;;;;;;5071386;28;2660;-71
2022/03/01 01:34:49;;;;;;;;;;;;;;;;;;5066051;28;2958;-71
2022/03/01 01:37:14;;;;;;;;;;;;;;;;;;5089565;28;1616;-71
2022/03/01 01:39:40;;;;;;;;;;;;;;;;;;5061232;28;1758;-71
2022/03/01 01:42:05;;;;;;;;;;;;;;;;;;5071013;28;2599;-71
2022/03/01 01:44:31;;;;;;;;;;;;;;;;;;5096358;28;1543;-71
2022/03/01 01:46:56;;;;;;;;;;;;;;;;;;5070471;28;1949;-71
2022/03/01 01:49:23;;;;;;;;;;;;;;;;;;5085561;28;1781;-71
2022/03/01 01:51:48;;;;;;;;;;;;;;;;;;5088740;28;2437;-70
2022/03/01 01:54:14;;;;;;;;;;;;;;;;;;5091245;28;1310;-71
2022/03/01 01:56:39;;;;;;;;;;;;;;;;;;5114226;28;939;-71
2022/03/01 01:59:04;;;;;;;;;;;;;;;;;;5114449;28;776;-71
2022/03/01 02:01:30;;;;;;;;;;;;;;;;;;5114208;28;895;-71
2022/03/01 02:03:55;;;;;;;;;;;;;;;;;;5091243;28;2442;-71
2022/03/01 02:06:20;;;;;;;;;;;;;;;;;;5114471;28;1973;-71
2022/03/01 02:08:46;;;;;;;;;;;;;;;;;;5114141;28;895;-71
2022/03/01 02:11:11;;;;;;;;;;;;;;;;;;5096800;28;1175;-71
2022/03/01 02:13:37;;;;;;;;;;;;;;;;;;5100411;28;2557;-71
2022/03/01 02:16:03;;;;;;;;;;;;;;;;;;5094459;28;758;-71
2022/03/01 02:18:28;;;;;;;;;;;;;;;;;;5075934;28;1362;-71
2022/03/01 02:20:53;;;;;;;;;;;;;;;;;;5094054;28;1383;-71
2022/03/01 02:23:19;;;;;;;;;;;;;;;;;;5100446;28;2396;-70
2022/03/01 02:25:44;;;;;;;;;;;;;;;;;;5114667;28;1906;-71
2022/03/01 02:28:09;;;;;;;;;;;;;;;;;;5114896;28;840;-71
2022/03/01 02:30:35;;;;;;;;;;;;;;;;;;5079319;28;1518;-71
2022/03/01 02:33:00;;;;;;;;;;;;;;;;;;5087963;28;2361;-71
2022/03/01 02:35:26;;;;;;;;;;;;;;;;;;5094029;28;899;-71
2022/03/01 02:37:51;;;;;;;;;;;;;;;;;;5094417;28;907;-71
2022/03/01 02:40:16;;;;;;;;;;;;;;;;;;5094091;28;1004;-71
2022/03/01 02:42:43;;;;;;;;;;;;;;;;;;5095198;28;2437;-71
2022/03/01 02:45:09;;;;;;;;;;;;;;;;;;5113959;28;1902;-71
2022/03/01 02:47:35;;;;;;;;;;;;;;;;;;5114077;28;923;-71
2022/03/01 02:50:00;;;;;;;;;;;;;;;;;;5113262;28;1174;-70
2022/03/01 02:52:26;;;;;;;;;;;;;;;;;;5113100;28;2596;-70
2022/03/01 02:54:51;;;;;;;;;;;;;;;;;;5094282;28;2431;-71
2022/03/01 02:57:16;;;;;;;;;;;;;;;;;;5095363;28;1092;-70
2022/03/01 02:59:42;;;;;;;;;;;;;;;;;;5074787;28;1176;-70
2022/03/01 03:02:09;;;;;;;;;;;;;;;;;;5093485;28;774;-70
2022/03/01 03:04:34;;;;;;;;;;;;;;;;;;5091263;28;2341;-71
2022/03/01 03:06:59;;;;;;;;;;;;;;;;;;5074286;28;1980;-70
2022/03/01 03:09:25;;;;;;;;;;;;;;;;;;5074864;28;911;-71
2022/03/01 03:11:50;;;;;;;;;;;;;;;;;;5093023;28;824;-71
2022/03/01 03:14:15;;;;;;;;;;;;;;;;;;5087524;28;2341;-70
2022/03/01 03:16:41;;;;;;;;;;;;;;;;;;5113664;28;978;-71
2022/03/01 03:19:07;;;;;;;;;;;;;;;;;;5078499;28;1331;-71
2022/03/01 03:21:33;;;;;;;;;;;;;;;;;;5113653;28;836;-71
2022/03/01 03:23:58;;;;;;;;;;;;;;;;;;5100887;28;2383;-71
2022/03/01 03:26:23;;;;;;;;;;;;;;;;;;5092891;28;1901;-71
2022/03/01 03:28:48;;;;;;;;;;;;;;;;;;5092726;28;967;-70
2022/03/01 03:31:14;;;;;;;;;;;;;;;;;;5074622;28;896;-70
2022/03/01 03:33:39;;;;;;;;;;;;;;;;;;5074501;28;2468;-70
2022/03/01 03:36:05;;;;;;;;;;;;;;;;;;5079249;28;2604;-70
2022/03/01 03:38:31;;;;;;;;;;;;;;;;;;5084164;28;1198;-70
2022/03/01 03:40:56;;;;;;;;;;;;;;;;;;5092913;28;828;-70
2022/03/01 03:43:21;;;;;;;;;;;;;;;;;;5090823;28;2421;-70
2022/03/01 03:45:47;;;;;;;;;;;;;;;;;;5092075;28;1906;-71
2022/03/01 03:48:12;;;;;;;;;;;;;;;;;;5092071;28;1054;-70
2022/03/01 03:50:38;;;;;;;;;;;;;;;;;;5092089;28;1167;-71
2022/03/01 03:53:03;;;;;;;;;;;;;;;;;;5072785;28;2363;-71
2022/03/01 03:55:28;;;;;;;;;;;;;;;;;;5111355;28;2409;-70
2022/03/01 03:57:54;;;;;;;;;;;;;;;;;;5112328;28;931;-70
2022/03/01 04:00:19;;;;;;;;;;;;;;;;;;5113053;28;828;-70
2022/03/01 04:02:45;;;;;;;;;;;;;;;;;;5112933;28;868;-71
2022/03/01 04:05:12;;;;;;;;;;;;;;;;;;5094197;28;2489;-71
2022/03/01 04:07:38;;;;;;;;;;;;;;;;;;5074563;28;888;-70
2022/03/01 04:10:03;;;;;;;;;;;;;;;;;;5073820;28;1175;-70
2022/03/01 04:12:29;;;;;;;;;;;;;;;;;;5091865;28;995;-71
2022/03/01 04:14:54;;;;;;;;;;;;;;;;;;5073606;28;2437;-71
2022/03/01 04:17:19;;;;;;;;;;;;;;;;;;5073660;28;1175;-71
2022/03/01 04:19:44;;;;;;;;;;;;;;;;;;5074100;28;789;-70
2022/03/01 04:22:10;;;;;;;;;;;;;;;;;;5092010;28;933;-71
2022/03/01 04:24:36;;;;;;;;;;;;;;;;;;5099879;28;2483;-70
2022/03/01 04:27:02;;;;;;;;;;;;;;;;;;5112145;28;1902;-71
2022/03/01 04:29:28;;;;;;;;;;;;;;;;;;5093713;28;1246;-71
2022/03/01 04:31:53;;;;;;;;;;;;;;;;;;5112851;28;770;-71
2022/03/01 04:34:18;;;;;;;;;;;;;;;;;;5109895;28;2864;-71
2022/03/01 04:36:44;;;;;;;;;;;;;;;;;;5112670;28;837;-71
2022/03/01 04:39:09;;;;;;;;;;;;;;;;;;5112284;28;962;-71
2022/03/01 04:41:35;;;;;;;;;;;;;;;;;;5093704;28;1565;-72
2022/03/01 04:44:00;;;;;;;;;;;;;;;;;;5090499;28;2560;-71
2022/03/01 04:46:25;;;;;;;;;;;;;;;;;;5074014;28;2254;-71
2022/03/01 04:48:50;;;;;;;;;;;;;;;;;;5073792;28;923;-72
2022/03/01 04:51:21;;;;;;;;;;;;;;;;;;5056487;28;1473;-71
2022/03/01 04:53:46;;;;;;;;;;;;;;;;;;5090863;28;2278;-71
2022/03/01 04:56:12;;;;;;;;;;;;;;;;;;5072949;28;2567;-70
2022/03/01 04:58:38;;;;;;;;;;;;;;;;;;5073503;28;890;-71
2022/03/01 05:01:03;;;;;;;;;;;;;;;;;;5073412;28;1143;-71
2022/03/01 05:03:28;;;;;;;;;;;;;;;;;;5073232;28;1281;-71
2022/03/01 05:05:54;;;;;;;;;;;;;;;;;;5103008;28;2417;-71
2022/03/01 05:08:19;;;;;;;;;;;;;;;;;;5111505;28;823;-71
2022/03/01 05:10:44;;;;;;;;;;;;;;;;;;5093165;28;912;-71
2022/03/01 05:13:09;;;;;;;;;;;;;;;;;;5111235;28;867;-71
2022/03/01 05:15:34;;;;;;;;;;;;;;;;;;5073239;28;2515;-71
2022/03/01 05:18:00;;;;;;;;;;;;;;;;;;5086481;28;1281;-71
2022/03/01 05:20:25;;;;;;;;;;;;;;;;;;5070476;28;1044;-72
2022/03/01 05:22:51;;;;;;;;;;;;;;;;;;5071047;28;836;-71
2022/03/01 05:25:17;;;;;;;;;;;;;;;;;;5085079;28;2509;-71
2022/03/01 05:27:44;;;;;;;;;;;;;;;;;;5092717;28;876;-71
2022/03/01 05:30:10;;;;;;;;;;;;;;;;;;5095295;28;1189;-71
2022/03/01 05:32:36;;;;;;;;;;;;;;;;;;5096499;28;1343;-71
2022/03/01 05:35:02;;;;;;;;;;;;;;;;;;5107406;28;2338;-71
2022/03/01 05:37:28;;;;;;;;;;;;;;;;;;5076372;28;1309;-71
2022/03/01 05:39:54;;;;;;;;;;;;;;;;;;5076409;28;1302;-71
2022/03/01 05:42:19;;;;;;;;;;;;;;;;;;5095213;28;911;-72
2022/03/01 05:44:44;;;;;;;;;;;;;;;;;;5077385;28;2376;-71
2022/03/01 05:47:09;;;;;;;;;;;;;;;;;;5113159;28;1905;-71
2022/03/01 05:49:35;;;;;;;;;;;;;;;;;;5112708;28;1207;-72
2022/03/01 05:52:00;;;;;;;;;;;;;;;;;;5076931;28;1551;-72
2022/03/01 05:54:26;;;;;;;;;;;;;;;;;;5094175;28;769;-72
2022/03/01 05:56:51;;;;;;;;;;;;;;;;;;5075286;28;2364;-72
2022/03/01 05:59:16;;;;;;;;;;;;;;;;;;5075911;28;1107;-71
2022/03/01 06:01:42;;;;;;;;;;;;;;;;;;5075904;28;1373;-71
2022/03/01 06:04:07;;;;;;;;;;;;;;;;;;5095440;28;852;-71
2022/03/01 06:06:32;;;;;;;;;;;;;;;;;;5093372;28;2466;-71
2022/03/01 06:08:57;;;;;;;;;;;;;;;;;;5108100;28;1156;-71
2022/03/01 06:11:23;;;;;;;;;;;;;;;;;;5095987;28;1198;-71
2022/03/01 06:13:48;;;;;;;;;;;;;;;;;;5074508;28;1211;-71
2022/03/01 06:16:13;;;;;;;;;;;;;;;;;;5097231;28;2321;-71
2022/03/01 06:18:39;;;;;;;;;;;;;;;;;;5089378;28;1208;-71
2022/03/01 06:21:04;;;;;;;;;;;;;;;;;;5106508;28;1164;-71
2022/03/01 06:23:30;;;;;;;;;;;;;;;;;;5095478;28;1227;-72
2022/03/01 06:25:56;;;;;;;;;;;;;;;;;;5093287;28;2369;-71
2022/03/01 06:28:21;;;;;;;;;;;;;;;;;;5114039;28;825;-71
2022/03/01 06:30:46;;;;;;;;;;;;;;;;;;5095886;28;1368;-71
2022/03/01 06:33:12;;;;;;;;;;;;;;;;;;5095684;28;793;-72
2022/03/01 06:35:37;;;;;;;;;;;;;;;;;;5089650;28;2698;-72
2022/03/01 06:38:03;;;;;;;;;;;;;;;;;;5094233;28;908;-71
2022/03/01 06:40:28;;;;;;;;;;;;;;;;;;5092889;28;931;-71
2022/03/01 06:42:54;;;;;;;;;;;;;;;;;;5059457;28;1319;-71
2022/03/01 06:45:20;;;;;;;;;;;;;;;;;;5075025;28;2266;-71
2022/03/01 06:47:45;;;;;;;;;;;;;;;;;;5075931;28;1230;-71
2022/03/01 06:50:11;;;;;;;;;;;;;;;;;;5074984;28;1384;-71
2022/03/01 06:52:37;;;;;;;;;;;;;;;;;;5074834;28;1104;-71
2022/03/01 06:55:06;;;;;;;;;;;;;;;;;;5093725;28;867;-71
2022/03/01 06:57:31;;;;;;;;;;;;;;;;;;5074486;28;2817;-72
2022/03/01 06:59:57;;;;;;;;;;;;;;;;;;5093094;28;1006;-71
2022/03/01 07:02:22;;;;;;;;;;;;;;;;;;5074825;28;832;-72
2022/03/01 07:04:47;;;;;;;;;;;;;;;;;;5074697;28;1054;-71
2022/03/01 07:07:13;;;;;;;;;;;;;;;;;;5105087;28;2485;-71
2022/03/01 07:09:38;;;;;;;;;;;;;;;;;;5113274;28;859;-71
2022/03/01 07:12:03;;;;;;;;;;;;;;;;;;5113251;28;960;-71
2022/03/01 07:14:29;;;;;;;;;;;;;;;;;;5113430;28;871;-71
2022/03/01 07:16:54;;;;;;;;;;;;;;;;;;5081970;28;2327;-71
2022/03/01 07:19:19;;;;;;;;;;;;;;;;;;5074466;28;1177;-71
2022/03/01 07:21:44;;;;;;;;;;;;;;;;;;5074223;28;1293;-71
2022/03/01 07:24:10;;;;;;;;;;;;;;;;;;5092843;28;852;-71
2022/03/01 07:26:36;;;;;;;;;;;;;;;;;;5091991;28;2393;-71
2022/03/01 07:29:01;;;;;;;;;;;;;;;;;;5074365;28;1316;-71
2022/03/01 07:31:27;;;;;;;;;;;;;;;;;;5092546;28;1002;-71
2022/03/01 07:33:52;;;;;;;;;;;;;;;;;;5074266;28;856;-71
2022/03/01 07:36:17;;;;;;;;;;;;;;;;;;5093027;28;2366;-71
2022/03/01 07:38:43;;;;;;;;;;;;;;;;;;5112131;28;829;-71
2022/03/01 07:41:08;;;;;;;;;;;;;;;;;;5094490;28;1012;-72
2022/03/01 07:43:33;;;;;;;;;;;;;;;;;;5076702;28;1389;-70
2022/03/01 07:45:59;;;;;;;;;;;;;;;;;;5089412;28;2365;-70
2022/03/01 07:48:24;;;;;;;;;;;;;;;;;;5094589;28;1302;-70
2022/03/01 07:50:49;;;;;;;;;;;;;;;;;;5113685;28;1043;-71
2022/03/01 07:53:16;;;;;;;;;;;;;;;;;;5112782;28;946;-71
2022/03/01 07:55:42;;;;;;;;;;;;;;;;;;5112779;28;809;-71
2022/03/01 07:58:07;;;;;;;;;;;;;;;;;;5092511;28;2330;-72
2022/03/01 08:00:32;;;;;;;;;;;;;;;;;;5074170;28;1296;-71
2022/03/01 08:02:58;;;;;;;;;;;;;;;;;;5092211;28;833;-72
2022/03/01 08:05:23;;;;;;;;;;;;;;;;;;5091665;28;1919;-71
2022/03/01 08:07:49;;;;;;;;;;;;;;;;;;5090460;28;2392;-72
2022/03/01 08:10:15;;;;;;;;;;;;;;;;;;5074052;28;874;-71
2022/03/01 08:12:40;;;;;;;;;;;;;;;;;;5091823;28;840;-71
2022/03/01 08:15:05;;;;;;;;;;;;;;;;;;5073793;28;1553;-71
2022/03/01 08:17:31;;;;;;;;;;;;;;;;;;5091236;28;856;-72
2022/03/01 08:19:56;;;;;;;;;;;;;;;;;;5073692;28;1184;-72
2022/03/01 08:22:21;;;;;;;;;;;;;;;;;;5073004;28;1293;-71
2022/03/01 08:24:47;;;;;;;;;;;;;;;;;;5091567;28;844;-71
2022/03/01 08:27:12;;;;;;;;;;;;;;;;;;5073513;28;1914;-71
2022/03/01 08:29:37;;;;;;;;;;;;;;;;;;5091479;28;927;-72
2022/03/01 08:32:02;;;;;;;;;;;;;;;;;;5073832;28;1228;-71
2022/03/01 08:34:28;;;;;;;;;;;;;;;;;;5073262;28;1203;-71
2022/03/01 08:36:53;;;;;;;;;;;;;;;;;;5091435;28;995;-71
2022/03/01 08:39:18;;;;;;;;;;;;;;;;;;5091866;28;813;-71
2022/03/01 08:41:43;;;;;;;;;;;;;;;;;;5073131;28;1453;-71
2022/03/01 08:44:09;;;;;;;;;;;;;;;;;;5091906;28;923;-70
2022/03/01 08:46:34;;;;;;;;;;;;;;;;;;5091083;28;1963;-71
2022/03/01 08:48:59;;;;;;;;;;;;;;;;;;5091404;28;1107;-71
2022/03/01 08:51:28;;;;;;;;;;;;;;;;;;5090994;28;1096;-71
2022/03/01 08:53:54;;;;;;;;;;;;;;;;;;5091536;28;891;-71
2022/03/01 08:56:20;;;;;;;;;;;;;;;;;;5091451;28;852;-70
2022/03/01 08:58:45;;;;;;;;;;;;;;;;;;5072636;28;817;-70
2022/03/01 09:01:11;;;;;;;;;;;;;;;;;;5091662;28;880;-70
2022/03/01 09:03:37;;;;;;;;;;;;;;;;;;5072176;28;891;-71
2022/03/01 09:06:05;;;;;;;;;;;;;;;;;;5072840;28;1973;-71
2022/03/01 09:08:30;;;;;;;;;;;;;;;;;;5090660;28;864;-70
2022/03/01 09:10:55;;;;;;;;;;;;;;;;;;5091409;28;812;-71
2022/03/01 09:13:21;;;;;;;;;;;;;;;;;;5073058;28;1191;-71
2022/03/01 09:15:46;;;;;;;;;;;;;;;;;;5090579;28;781;-71
2022/03/01 09:18:11;;;;;;;;;;;;;;;;;;5072827;28;1367;-71
2022/03/01 09:20:37;;;;;;;;;;;;;;;;;;5055848;28;1223;-71
2022/03/01 09:23:02;;;;;;;;;;;;;;;;;;5090863;28;903;-71
2022/03/01 09:25:28;;;;;;;;;;;;;;;;;;5072985;28;1906;-71
2022/03/01 09:27:53;;;;;;;;;;;;;;;;;;5090932;28;860;-71
2022/03/01 09:30:19;;;;;;;;;;;;;;;;;;5091234;28;962;-71
2022/03/01 09:32:45;;;;;;;;;;;;;;;;;;5090673;28;872;-71
2022/03/01 09:35:10;;;;;;;;;;;;;;;;;;5072982;28;840;-70
2022/03/01 09:37:36;;;;;;;;;;;;;;;;;;5090669;28;899;-71
2022/03/01 09:40:04;;;;;;;;;;;;;;;;;;5073039;28;1332;-71
2022/03/01 09:42:30;;;;;;;;;;;;;;;;;;5091276;28;906;-71
2022/03/01 09:44:56;;;;;;;;;;;;;;;;;;5090514;28;3036;-72
2022/03/01 09:47:22;;;;;;;;;;;;;;;;;;5102617;28;2954;-71
2022/03/01 09:49:47;;;;;;;;;;;;;;;;;;5105552;28;1069;-71
2022/03/01 09:52:13;;;;;;;;;;;;;;;;;;5099974;28;1362;-71
2022/03/01 09:54:38;;;;;;;;;;;;;;;;;;5098651;28;1089;-71
2022/03/01 09:57:04;;;;;;;;;;;;;;;;;;5088824;28;1113;-70
2022/03/01 09:59:29;;;;;;;;;;;;;;;;;;5071761;28;1168;-70
2022/03/01 10:01:54;;;;;;;;;;;;;;;;;;5052820;28;987;-70
2022/03/01 10:04:20;;;;;;;;;;;;;;;;;;5078228;28;3057;-70
2022/03/01 10:06:46;;;;;;;;;;;;;;;;;;5097167;28;1909;-70
2022/03/01 10:09:32;;;;;;;;;;;;;;;;;;5107811;28;1212;-69
2022/03/01 10:12:03;;;;;;;;;;;;;;;;;;5079040;28;1270;-70
2022/03/01 10:14:29;;;;;;;;;;;;;;;;;;5092510;28;1291;-70
2022/03/01 10:16:55;;;;;;;;;;;;;;;;;;5093474;28;1124;-70
2022/03/01 10:19:21;;;;;;;;;;;;;;;;;;5090453;28;1238;-71
2022/03/01 10:21:56;;;;;;;;;;;;;;;;;;5109434;28;1219;-70
2022/03/01 10:24:22;;;;;;;;;;;;;;;;;;5114866;28;1163;-70
2022/03/01 10:26:49;;;;;;;;;;;;;;;;;;5100146;28;1906;-71
2022/03/01 10:29:15;;;;;;;;;;;;;;;;;;5110870;28;1187;-71
2022/03/01 10:31:41;;;;;;;;;;;;;;;;;;5098171;28;1018;-70
2022/03/01 10:34:07;;;;;;;;;;;;;;;;;;5080840;28;1120;-70
2022/03/01 10:36:32;;;;;;;;;;;;;;;;;;5097145;28;1286;-71
2022/03/01 10:39:06;;;;;;;;;;;;;;;;;;5080160;28;1310;-70
2022/03/01 10:41:33;;;;;;;;;;;;;;;;;;5110609;28;1157;-71
2022/03/01 10:43:59;;;;;;;;;;;;;;;;;;5100736;28;1117;-69
2022/03/01 10:46:26;;;;;;;;;;;;;;;;;;5103236;28;1898;-70
2022/03/01 10:49:08;;;;;;;;;;;;;;;;;;5089019;28;1191;-70
2022/03/01 10:51:34;;;;;;;;;;;;;;;;;;5077731;28;1407;-70
2022/03/01 10:54:00;;;;;;;;;;;;;;;;;;5106910;28;1025;-71
2022/03/01 10:56:33;;;;;;;;;;;;;;;;;;5104733;28;1144;-71
2022/03/01 10:58:58;;;;;;;;;;;;;;;;;;5097087;28;1468;-71
2022/03/01 11:01:26;;;;;;;;;;;;;;;;;;5058548;28;1462;-71
2022/03/01 11:03:51;;;;;;;;;;;;;;;;;;5075120;28;891;-71
2022/03/01 11:06:17;;;;;;;;;;;;;;;;;;5090470;28;1939;-72
2022/03/01 11:08:43;;;;;;;;;;;;;;;;;;5076498;28;1211;-71
2022/03/01 11:11:09;;;;;;;;;;;;;;;;;;5079437;28;3715;-71
2022/03/01 11:13:36;;;;;;;;;;;;;;;;;;5090047;28;3123;-71
2022/03/01 11:16:08;;;;;;;;;;;;;;;;;;5075356;28;1302;-71
2022/03/01 11:19:03;;;;;;;;;;;;;;;;;;5074943;28;2835;-71
2022/03/01 11:21:29;;;;;;;;;;;;;;;;;;5079806;28;1367;-71
2022/03/01 11:23:55;;;;;;;;;;;;;;;;;;5075294;28;1553;-71
2022/03/01 11:26:21;;;;;;;;;;;;;;;;;;5074710;28;1967;-72
2022/03/01 11:28:54;;;;;;;;;;;;;;;;;;5091778;28;840;-72
2022/03/01 11:31:29;;;;;;;;;;;;;;;;;;5056007;28;2855;-72
2022/03/01 11:33:56;;;;;;;;;;;;;;;;;;5072589;28;833;-72
2022/03/01 11:36:22;;;;;;;;;;;;;;;;;;5072703;28;979;-71
2022/03/01 11:38:47;;;;;;;;;;;;;;;;;;5054134;28;1455;-72
2022/03/01 11:41:20;;;;;;;;;;;;;;;;;;5054414;28;1182;-72
2022/03/01 11:43:51;;;;;;;;;;;;;;;;;;5054393;28;1382;-71
2022/03/01 11:46:17;;;;;;;;;;;;;;;;;;5054140;28;1906;-71
2022/03/01 11:48:44;;;;;;;;;;;;;;;;;;5072182;28;888;-72
2022/03/01 11:51:09;;;;;;;;;;;;;;;;;;5072493;28;1200;-72
2022/03/01 11:53:37;;;;;;;;;;;;;;;;;;5054401;28;876;-71
2022/03/01 11:56:03;;;;;;;;;;;;;;;;;;5054185;28;1120;-72
2022/03/01 11:58:30;;;;;;;;;;;;;;;;;;5072133;28;1059;-71
2022/03/01 12:00:56;;;;;;;;;;;;;;;;;;5071507;28;904;-71
2022/03/01 12:03:24;;;;;;;;;;;;;;;;;;5072042;28;911;-72
2022/03/01 12:05:50;;;;;;;;;;;;;;;;;;5071470;28;1902;-71
2022/03/01 12:08:17;;;;;;;;;;;;;;;;;;5053814;28;1238;-72
2022/03/01 12:10:53;;;;;;;;;;;;;;;;;;5071700;28;789;-72
2022/03/01 12:13:18;;;;;;;;;;;;;;;;;;5071577;28;807;-71
2022/03/01 12:15:44;;;;;;;;;;;;;;;;;;5053451;28;1234;-71
2022/03/01 12:18:11;;;;;;;;;;;;;;;;;;5053360;28;1346;-70
2022/03/01 12:20:38;;;;;;;;;;;;;;;;;;5072178;28;911;-71
2022/03/01 12:23:04;;;;;;;;;;;;;;;;;;5053316;28;1308;-71
2022/03/01 12:25:33;;;;;;;;;;;;;;;;;;5071566;28;1913;-71
2022/03/01 12:28:00;;;;;;;;;;;;;;;;;;5071210;28;910;-72
2022/03/01 12:30:26;;;;;;;;;;;;;;;;;;5053361;28;1338;-71
2022/03/01 12:32:53;;;;;;;;;;;;;;;;;;5053314;28;1238;-71
2022/03/01 12:35:18;;;;;;;;;;;;;;;;;;5071608;28;947;-72
2022/03/01 12:37:44;;;;;;;;;;;;;;;;;;5053564;28;1227;-71
2022/03/01 12:40:09;;;;;;;;;;;;;;;;;;5052425;28;864;-71
2022/03/01 12:42:38;;;;;;;;;;;;;;;;;;5053738;28;1003;-71
2022/03/01 12:45:03;;;;;;;;;;;;;;;;;;5052819;28;1163;-71
2022/03/01 12:47:29;;;;;;;;;;;;;;;;;;5071118;28;1961;-71
2022/03/01 12:49:54;;;;;;;;;;;;;;;;;;5052824;28;1293;-71
2022/03/01 12:52:20;;;;;;;;;;;;;;;;;;5052846;28;1426;-71
2022/03/01 12:54:49;;;;;;;;;;;;;;;;;;5053032;28;1242;-71
2022/03/01 12:57:15;;;;;;;;;;;;;;;;;;5071179;28;903;-71
2022/03/01 12:59:40;;;;;;;;;;;;;;;;;;5070944;28;813;-71
2022/03/01 13:02:07;;;;;;;;;;;;;;;;;;5071016;28;785;-71
2022/03/01 13:04:36;;;;;;;;;;;;;;;;;;5070929;28;754;-71
2022/03/01 13:07:02;;;;;;;;;;;;;;;;;;5053079;28;1906;-71
2022/03/01 13:09:28;;;;;;;;;;;;;;;;;;5071396;28;923;-71
2022/03/01 13:11:53;;;;;;;;;;;;;;;;;;5053336;28;1215;-71
2022/03/01 13:14:19;;;;;;;;;;;;;;;;;;5052980;28;1250;-71
2022/03/01 13:16:45;;;;;;;;;;;;;;;;;;5071302;28;765;-71
2022/03/01 13:19:12;;;;;;;;;;;;;;;;;;5071489;28;979;-72
2022/03/01 13:21:40;;;;;;;;;;;;;;;;;;5052654;28;1341;-71
2022/03/01 13:24:11;;;;;;;;;;;;;;;;;;5052578;28;1586;-71
2022/03/01 13:26:36;;;;;;;;;;;;;;;;;;5052663;28;1897;-71
2022/03/01 13:29:07;;;;;;;;;;;;;;;;;;5052691;28;888;-71
2022/03/01 13:31:32;;;;;;;;;;;;;;;;;;5070935;28;894;-70
2022/03/01 13:33:58;;;;;;;;;;;;;;;;;;5070885;28;832;-71
2022/03/01 13:36:28;;;;;;;;;;;;;;;;;;5052207;28;1205;-71
2022/03/01 13:38:58;;;;;;;;;;;;;;;;;;5052337;28;1195;-71
2022/03/01 13:41:26;;;;;;;;;;;;;;;;;;5070286;28;987;-71
2022/03/01 13:43:52;;;;;;;;;;;;;;;;;;5070507;28;817;-71
2022/03/01 13:46:17;;;;;;;;;;;;;;;;;;5070532;28;2007;-70
2022/03/01 13:48:43;;;;;;;;;;;;;;;;;;5070464;28;899;-71
2022/03/01 13:51:08;;;;;;;;;;;;;;;;;;5037943;28;1247;-71
2022/03/01 13:53:35;;;;;;;;;;;;;;;;;;5074426;28;832;-71
2022/03/01 13:56:01;;;;;;;;;;;;;;;;;;5074429;28;875;-71
2022/03/01 13:58:27;;;;;;;;;;;;;;;;;;5056350;28;1310;-70
2022/03/01 14:00:53;;;;;;;;;;;;;;;;;;5074052;28;825;-70
2022/03/01 14:03:37;;;;;;;;;;;;;;;;;;5074012;28;923;-70
2022/03/01 14:06:09;;;;;;;;;;;;;;;;;;5073710;28;1913;-70
2022/03/01 14:08:36;;;;;;;;;;;;;;;;;;5073822;28;809;-70
2022/03/01 14:11:03;;;;;;;;;;;;;;;;;;5055281;28;1203;-70
2022/03/01 14:13:31;;;;;;;;;;;;;;;;;;5056054;28;1136;-70
2022/03/01 14:16:07;;;;;;;;;;;;;;;;;;5073702;28;841;-69
2022/03/01 14:18:39;;;;;;;;;;;;;;;;;;5073904;28;844;-70
2022/03/01 14:21:05;;;;;;;;;;;;;;;;;;5073207;28;824;-70
2022/03/01 14:23:31;;;;;;;;;;;;;;;;;;5056072;28;1334;-70
2022/03/01 14:25:58;;;;;;;;;;;;;;;;;;5073728;28;1902;-70
2022/03/01 14:28:23;;;;;;;;;;;;;;;;;;5073566;28;861;-70
2022/03/01 14:30:49;;;;;;;;;;;;;;;;;;5055327;28;1307;-70
2022/03/01 14:33:14;;;;;;;;;;;;;;;;;;5073613;28;1089;-70
2022/03/01 14:35:40;;;;;;;;;;;;;;;;;;5055341;28;990;-69
2022/03/01 14:38:06;;;;;;;;;;;;;;;;;;5055885;28;883;-70
2022/03/01 14:40:32;;;;;;;;;;;;;;;;;;5073596;28;947;-70
2022/03/01 14:42:57;;;;;;;;;;;;;;;;;;5072968;28;801;-70
2022/03/01 14:45:23;;;;;;;;;;;;;;;;;;5055168;28;1192;-70
2022/03/01 14:47:49;;;;;;;;;;;;;;;;;;5073239;28;1953;-70
2022/03/01 14:50:14;;;;;;;;;;;;;;;;;;5073723;28;915;-69
2022/03/01 14:52:39;;;;;;;;;;;;;;;;;;5055809;28;1219;-70
2022/03/01 14:55:05;;;;;;;;;;;;;;;;;;5074171;28;861;-70
2022/03/01 14:57:31;;;;;;;;;;;;;;;;;;5055597;28;1453;-70
2022/03/01 14:59:56;;;;;;;;;;;;;;;;;;5056018;28;891;-70
2022/03/01 15:02:22;;;;;;;;;;;;;;;;;;5072963;28;828;-70
2022/03/01 15:04:50;;;;;;;;;;;;;;;;;;5075002;28;820;-70
2022/03/01 15:07:16;;;;;;;;;;;;;;;;;;5074210;28;1977;-70
2022/03/01 15:09:41;;;;;;;;;;;;;;;;;;5073891;28;1090;-70
2022/03/01 15:12:06;;;;;;;;;;;;;;;;;;5073681;28;907;-70
2022/03/01 15:14:32;;;;;;;;;;;;;;;;;;5073035;28;1153;-70
2022/03/01 15:16:57;;;;;;;;;;;;;;;;;;5073351;28;920;-70
2022/03/01 15:19:22;;;;;;;;;;;;;;;;;;5073093;28;908;-70
2022/03/01 15:21:48;;;;;;;;;;;;;;;;;;5072824;28;882;-70
2022/03/01 15:24:13;;;;;;;;;;;;;;;;;;5038385;28;1207;-70
2022/03/01 15:26:39;;;;;;;;;;;;;;;;;;5054960;28;1902;-70
2022/03/01 15:29:05;;;;;;;;;;;;;;;;;;5073283;28;871;-70
2022/03/01 15:31:30;;;;;;;;;;;;;;;;;;5073177;28;754;-70
2022/03/01 15:33:56;;;;;;;;;;;;;;;;;;5054836;28;1178;-70
2022/03/01 15:36:21;;;;;;;;;;;;;;;;;;5072203;28;912;-70
2022/03/01 15:38:46;;;;;;;;;;;;;;;;;;5072775;28;915;-70
2022/03/01 15:41:12;;;;;;;;;;;;;;;;;;5055023;28;1389;-71
2022/03/01 15:43:37;;;;;;;;;;;;;;;;;;5072973;28;765;-70
2022/03/01 15:46:03;;;;;;;;;;;;;;;;;;5072242;28;1967;-70
2022/03/01 15:48:28;;;;;;;;;;;;;;;;;;5072074;28;849;-70
2022/03/01 15:50:53;;;;;;;;;;;;;;;;;;5072041;28;1021;-70
2022/03/01 15:53:19;;;;;;;;;;;;;;;;;;5072338;28;849;-70
2022/03/01 15:55:44;;;;;;;;;;;;;;;;;;5072346;28;888;-71
2022/03/01 15:58:12;;;;;;;;;;;;;;;;;;5072175;28;821;-71
2022/03/01 16:00:38;;;;;;;;;;;;;;;;;;5072038;28;1097;-71
2022/03/01 16:03:03;;;;;;;;;;;;;;;;;;5053701;28;1435;-71
2022/03/01 16:05:28;;;;;;;;;;;;;;;;;;5053524;28;1486;-71
2022/03/01 16:07:54;;;;;;;;;;;;;;;;;;5071429;28;1977;-71
2022/03/01 16:10:21;;;;;;;;;;;;;;;;;;5071736;28;919;-71
2022/03/01 16:12:46;;;;;;;;;;;;;;;;;;5053743;28;845;-71
2022/03/01 16:15:12;;;;;;;;;;;;;;;;;;5071789;28;845;-70
2022/03/01 16:17:37;;;;;;;;;;;;;;;;;;5053747;28;828;-71
2022/03/01 16:20:03;;;;;;;;;;;;;;;;;;5071482;28;1050;-70
2022/03/01 16:22:28;;;;;;;;;;;;;;;;;;5071265;28;1188;-71
2022/03/01 16:24:54;;;;;;;;;;;;;;;;;;5071415;28;978;-71
2022/03/01 16:27:20;;;;;;;;;;;;;;;;;;5071092;28;1914;-70
2022/03/01 16:29:45;;;;;;;;;;;;;;;;;;5071275;28;876;-70
2022/03/01 16:32:11;;;;;;;;;;;;;;;;;;5071444;28;899;-71
2022/03/01 16:34:36;;;;;;;;;;;;;;;;;;5036529;28;1376;-71
2022/03/01 16:37:02;;;;;;;;;;;;;;;;;;5071078;28;991;-71
2022/03/01 16:39:28;;;;;;;;;;;;;;;;;;5071699;28;1042;-71
2022/03/01 16:41:54;;;;;;;;;;;;;;;;;;5053009;28;1279;-70
2022/03/01 16:44:20;;;;;;;;;;;;;;;;;;5053287;28;1298;-71
2022/03/01 16:46:45;;;;;;;;;;;;;;;;;;5053042;28;1951;-70
2022/03/01 16:49:11;;;;;;;;;;;;;;;;;;5071525;28;992;-70
2022/03/01 16:51:37;;;;;;;;;;;;;;;;;;5053507;28;1345;-71
2022/03/01 16:54:04;;;;;;;;;;;;;;;;;;5062056;28;1290;-70
2022/03/01 16:56:29;;;;;;;;;;;;;;;;;;5091703;28;899;-70
2022/03/01 16:58:54;;;;;;;;;;;;;;;;;;5074078;28;1217;-71